createdAt,value
2023-03-13T00:01:21.069Z,2.90
2023-03-13T00:03:50.912Z,3.50
2023-03-13T00:06:20.070Z,3.47
2023-03-13T00:08:48.302Z,2.97
2023-03-13T00:11:16.886Z,2.93
2023-03-13T00:13:45.575Z,3.43
2023-03-13T00:16:15.571Z,2.83
2023-03-13T00:18:47.759Z,3.30
2023-03-13T00:21:18.337Z,2.73
2023-03-13T00:23:47.422Z,2.90
2023-03-13T00:26:18.229Z,2.83
2023-03-13T00:28:46.820Z,3.03
2023-03-13T00:31:16.576Z,3.03
2023-03-13T00:33:47.757Z,3.90
2023-03-13T00:36:19.346Z,2.67
2023-03-13T00:38:48.520Z,3.33
2023-03-13T00:41:18.795Z,3.30
2023-03-13T00:43:47.862Z,3.50
2023-03-13T00:46:18.484Z,3.13
2023-03-13T00:48:46.919Z,3.47
2023-03-13T00:51:18.931Z,3.07
2023-03-13T00:53:48.029Z,3.47
2023-03-13T00:56:17.937Z,3.60
2023-03-13T00:58:47.898Z,2.33
2023-03-13T01:01:18.576Z,3.27
2023-03-13T01:03:48.849Z,2.93
2023-03-13T01:06:20.887Z,2.90
2023-03-13T01:08:49.411Z,3.47
2023-03-13T01:11:19.692Z,3.37
2023-03-13T01:13:48.384Z,2.77
2023-03-13T01:16:18.778Z,2.53
2023-03-13T01:18:49.358Z,2.73
2023-03-13T01:21:22.399Z,2.80
2023-03-13T01:23:51.655Z,2.77
2023-03-13T01:26:20.875Z,3.10
2023-03-13T01:28:49.393Z,2.60
2023-03-13T01:31:19.717Z,2.40
2023-03-13T01:33:50.029Z,2.67
2023-03-13T01:36:19.983Z,2.60
2023-03-13T01:38:49.925Z,2.93
2023-03-13T01:41:19.078Z,2.10
2023-03-13T01:43:47.793Z,2.17
2023-03-13T01:46:17.859Z,2.30
2023-03-13T01:48:51.656Z,1.70
2023-03-13T01:51:26.339Z,2.40
2023-03-13T01:54:01.546Z,2.20
2023-03-13T01:56:35.738Z,3.10
2023-03-13T01:59:05.629Z,1.60
2023-03-13T02:01:34.288Z,2.10
2023-03-13T02:04:03.033Z,2.20
2023-03-13T02:06:37.651Z,1.60
2023-03-13T02:09:11.054Z,1.90
2023-03-13T02:11:48.651Z,2.50
2023-03-13T02:14:22.287Z,1.60
2023-03-13T02:16:51.980Z,1.50
2023-03-13T02:19:25.865Z,2.17
2023-03-13T02:22:03.664Z,2.00
2023-03-13T02:24:38.533Z,1.50
2023-03-13T02:27:08.586Z,1.43
2023-03-13T02:29:36.796Z,0.97
2023-03-13T02:32:05.647Z,1.90
2023-03-13T02:34:36.420Z,1.37
2023-03-13T02:37:06.864Z,1.40
2023-03-13T02:39:36.224Z,1.20
2023-03-13T02:42:04.960Z,1.40
2023-03-13T02:44:39.797Z,1.20
2023-03-13T02:47:09.692Z,0.77
2023-03-13T02:49:38.475Z,0.70
2023-03-13T02:52:14.985Z,0.90
2023-03-13T02:54:46.478Z,0.90
2023-03-13T02:57:15.375Z,1.27
2023-03-13T02:59:45.013Z,1.30
2023-03-13T03:02:13.228Z,0.90
2023-03-13T03:04:41.538Z,0.80
2023-03-13T03:07:09.776Z,0.77
2023-03-13T03:09:38.305Z,1.17
2023-03-13T03:12:07.697Z,0.70
2023-03-13T03:14:35.893Z,0.80
2023-03-13T03:17:05.574Z,0.57
2023-03-13T03:19:33.816Z,0.47
2023-03-13T03:22:02.186Z,0.93
2023-03-13T03:24:30.603Z,0.53
2023-03-13T03:26:58.803Z,0.50
2023-03-13T03:29:27.677Z,0.87
2023-03-13T03:31:56.224Z,0.60
2023-03-13T03:34:25.734Z,0.57
2023-03-13T03:36:53.882Z,0.50
2023-03-13T03:39:22.099Z,0.80
2023-03-13T03:41:50.345Z,0.57
2023-03-13T03:44:18.435Z,0.60
2023-03-13T03:46:46.858Z,0.43
2023-03-13T03:49:15.063Z,0.60
2023-03-13T03:51:44.878Z,0.50
2023-03-13T03:54:13.089Z,0.60
2023-03-13T03:56:41.314Z,0.47
2023-03-13T03:59:09.414Z,1.00
2023-03-13T04:01:37.588Z,0.60
2023-03-13T04:04:05.821Z,0.60
2023-03-13T04:06:33.968Z,0.50
2023-03-13T04:09:03.576Z,0.50
2023-03-13T04:11:32.254Z,0.60
2023-03-13T04:14:00.461Z,0.50
2023-03-13T04:16:29.054Z,0.60
2023-03-13T04:18:57.274Z,0.60
2023-03-13T04:21:25.442Z,0.60
2023-03-13T04:23:53.570Z,0.60
2023-03-13T04:26:23.130Z,0.50
2023-03-13T04:28:52.006Z,0.40
2023-03-13T04:31:20.302Z,0.47
2023-03-13T04:33:48.840Z,0.50
2023-03-13T04:36:17.369Z,0.80
2023-03-13T04:38:45.552Z,0.50
2023-03-13T04:41:13.783Z,0.97
2023-03-13T04:43:43.559Z,0.73
2023-03-13T04:46:11.756Z,0.50
2023-03-13T04:48:39.955Z,0.63
2023-03-13T04:51:08.149Z,0.50
2023-03-13T04:53:36.319Z,0.50
2023-03-13T04:56:04.934Z,0.67
2023-03-13T04:58:33.220Z,0.80
2023-03-13T05:01:02.838Z,0.50
2023-03-13T05:03:30.985Z,0.40
2023-03-13T05:05:59.219Z,0.50
2023-03-13T05:08:27.617Z,0.70
2023-03-13T05:10:55.726Z,0.50
2023-03-13T05:13:23.963Z,0.60
2023-03-13T05:15:52.127Z,0.50
2023-03-13T05:18:21.879Z,0.40
2023-03-13T05:20:50.067Z,0.50
2023-03-13T05:23:18.241Z,0.50
2023-03-13T05:25:46.701Z,0.70
2023-03-13T05:28:14.904Z,0.60
2023-03-13T05:30:43.148Z,0.50
2023-03-13T05:33:11.433Z,0.80
2023-03-13T05:35:41.007Z,0.50
2023-03-13T05:38:09.272Z,0.60
2023-03-13T05:40:37.449Z,0.50
2023-03-13T05:43:05.736Z,0.90
2023-03-13T05:45:33.969Z,0.60
2023-03-13T05:48:02.332Z,0.60
2023-03-13T05:50:30.488Z,0.70
2023-03-13T05:53:00.027Z,0.60
2023-03-13T05:55:28.400Z,0.70
2023-03-13T05:57:56.661Z,0.73
2023-03-13T06:00:25.271Z,0.60
2023-03-13T06:02:53.417Z,0.80
2023-03-13T06:05:21.594Z,0.97
2023-03-13T06:07:50.556Z,0.70
2023-03-13T06:10:20.371Z,0.87
2023-03-13T06:12:54.016Z,0.90
2023-03-13T06:18:40.004Z,0.90
2023-03-13T06:21:08.465Z,0.70
2023-03-13T06:23:37.218Z,0.80
2023-03-13T06:26:07.224Z,1.00
2023-03-13T06:28:35.683Z,0.90
2023-03-13T06:31:05.405Z,0.70
2023-03-13T06:33:34.185Z,1.10
2023-03-13T06:36:03.009Z,0.87
2023-03-13T06:38:31.723Z,0.70
2023-03-13T06:40:59.946Z,0.97
2023-03-13T06:43:29.712Z,1.10
2023-03-13T06:45:57.915Z,1.07
2023-03-13T06:48:26.155Z,1.00
2023-03-13T06:50:56.505Z,1.10
2023-03-13T06:53:24.663Z,0.80
2023-03-13T06:55:52.852Z,1.20
2023-03-13T06:58:31.649Z,0.80
2023-03-13T07:01:06.761Z,1.30
2023-03-13T07:03:35.686Z,1.17
2023-03-13T07:06:05.460Z,0.97
2023-03-13T07:08:34.878Z,1.00
2023-03-13T07:11:05.376Z,0.93
2023-03-13T07:13:33.608Z,1.17
2023-03-13T07:16:05.252Z,1.43
2023-03-13T07:18:33.981Z,1.53
2023-03-13T07:21:05.119Z,1.23
2023-03-13T07:23:35.796Z,1.20
2023-03-13T07:26:07.780Z,1.40
2023-03-13T07:28:37.748Z,1.60
2023-03-13T07:31:09.889Z,1.40
2023-03-13T07:33:38.659Z,1.47
2023-03-13T07:36:07.845Z,1.40
2023-03-13T07:38:36.388Z,1.40
2023-03-13T07:41:05.638Z,1.70
2023-03-13T07:43:34.563Z,1.83
2023-03-13T07:46:04.789Z,1.60
2023-03-13T07:48:36.108Z,1.40
2023-03-13T07:51:04.785Z,1.53
2023-03-13T07:53:33.115Z,2.07
2023-03-13T07:56:02.919Z,1.30
2023-03-13T07:58:33.278Z,1.73
2023-03-13T08:01:01.655Z,1.93
2023-03-13T08:03:30.162Z,1.67
2023-03-13T08:06:01.566Z,2.17
2023-03-13T08:08:30.672Z,1.83
2023-03-13T08:11:03.264Z,1.97
2023-03-13T08:13:32.263Z,1.80
2023-03-13T08:16:05.352Z,2.00
2023-03-13T08:18:34.982Z,1.70
2023-03-13T08:21:06.051Z,2.23
2023-03-13T08:23:35.103Z,2.00
2023-03-13T08:26:04.935Z,2.17
2023-03-13T08:28:33.384Z,2.07
2023-03-13T08:31:08.980Z,2.30
2023-03-13T08:33:37.408Z,1.93
2023-03-13T08:36:18.582Z,2.00
2023-03-13T08:38:48.132Z,2.77
2023-03-13T08:41:18.358Z,1.83
2023-03-13T08:43:48.250Z,2.40
2023-03-13T08:46:19.238Z,1.93
2023-03-13T08:48:51.352Z,1.97
2023-03-13T08:51:22.332Z,3.00
2023-03-13T08:53:51.049Z,2.37
2023-03-13T08:56:21.036Z,2.30
2023-03-13T08:58:51.527Z,2.33
2023-03-13T09:01:20.164Z,2.03
2023-03-13T09:03:48.589Z,1.80
2023-03-13T09:06:16.769Z,1.90
2023-03-13T09:08:46.960Z,2.50
2023-03-13T09:11:17.654Z,2.10
2023-03-13T09:13:49.162Z,2.40
2023-03-13T09:16:19.175Z,2.00
2023-03-13T09:18:47.742Z,1.97
2023-03-13T09:21:18.160Z,2.23
2023-03-13T09:23:48.401Z,1.80
2023-03-13T09:26:17.928Z,1.70
2023-03-13T09:28:46.739Z,1.80
2023-03-13T09:31:16.989Z,2.37
2023-03-13T09:33:47.702Z,1.97
2023-03-13T09:36:18.712Z,2.40
2023-03-13T09:38:49.639Z,2.13
2023-03-13T09:41:25.334Z,1.63
2023-03-13T09:44:01.908Z,1.97
2023-03-13T09:46:38.288Z,2.03
2023-03-13T09:49:13.344Z,2.17
2023-03-13T09:51:45.418Z,1.80
2023-03-13T09:54:27.256Z,1.80
2023-03-13T09:56:59.828Z,1.70
2023-03-13T09:59:34.256Z,1.70
2023-03-13T10:02:06.543Z,1.60
2023-03-13T10:04:43.759Z,1.57
2023-03-13T10:07:13.078Z,1.33
2023-03-13T10:09:43.786Z,1.50
2023-03-13T10:12:20.592Z,1.33
2023-03-13T10:14:58.162Z,1.20
2023-03-13T10:17:33.292Z,1.50
2023-03-13T10:20:10.894Z,1.40
2023-03-13T10:22:43.282Z,1.40
2023-03-13T10:25:25.704Z,1.30
2023-03-13T10:27:55.397Z,1.10
2023-03-13T10:30:26.268Z,1.00
2023-03-13T10:32:58.534Z,1.10
2023-03-13T10:35:33.416Z,1.00
2023-03-13T10:38:06.049Z,0.80
2023-03-13T10:40:37.004Z,0.97
2023-03-13T10:43:07.087Z,0.90
2023-03-13T10:45:38.447Z,1.10
2023-03-13T10:48:14.648Z,1.10
2023-03-13T10:50:44.960Z,0.90
2023-03-13T10:53:33.758Z,0.70
2023-03-13T10:56:10.555Z,0.90
2023-03-13T10:58:44.006Z,0.87
2023-03-13T11:01:18.844Z,0.87
2023-03-13T11:03:49.807Z,0.97
2023-03-13T11:06:26.538Z,1.20
2023-03-13T11:09:01.250Z,0.90
2023-03-13T11:11:31.976Z,0.80
2023-03-13T11:14:19.507Z,0.80
2023-03-13T11:16:50.299Z,1.20
2023-03-13T11:19:34.918Z,0.67
2023-03-13T11:22:15.114Z,0.60
2023-03-13T11:24:47.156Z,0.77
2023-03-13T11:27:27.563Z,0.73
2023-03-13T11:30:05.981Z,0.90
2023-03-13T11:32:43.246Z,0.83
2023-03-13T11:35:26.105Z,0.70
2023-03-13T11:37:57.656Z,0.80
2023-03-13T11:40:33.135Z,0.70
2023-03-13T11:43:28.499Z,0.67
2023-03-13T11:46:11.471Z,0.80
2023-03-13T11:49:07.010Z,0.60
2023-03-13T11:51:49.291Z,0.50
2023-03-13T11:54:49.471Z,0.60
2023-03-13T11:57:25.883Z,0.70
2023-03-13T12:00:14.708Z,0.60
2023-03-13T12:02:49.682Z,0.50
2023-03-13T12:05:20.574Z,0.50
2023-03-13T12:07:54.380Z,0.60
2023-03-13T12:10:29.721Z,0.70
2023-03-13T12:13:03.704Z,0.60
2023-03-13T12:15:39.047Z,0.50
2023-03-13T12:18:19.051Z,0.60
2023-03-13T12:20:55.959Z,0.50
2023-03-13T12:23:43.379Z,1.00
2023-03-13T12:26:14.177Z,0.50
2023-03-13T12:28:46.503Z,0.70
2023-03-13T12:31:23.503Z,0.60
2023-03-13T12:33:58.642Z,0.60
2023-03-13T12:36:31.060Z,0.63
2023-03-13T12:39:11.588Z,0.70
2023-03-13T12:41:43.582Z,0.90
2023-03-13T12:44:16.585Z,0.70
2023-03-13T12:46:48.927Z,0.70
2023-03-13T12:49:38.409Z,0.93
2023-03-13T12:52:44.244Z,0.80
2023-03-13T12:55:33.349Z,0.80
2023-03-13T12:58:26.998Z,1.10
2023-03-13T13:00:58.025Z,0.90
2023-03-13T13:03:36.166Z,0.73
2023-03-13T13:06:10.183Z,0.87
2023-03-13T13:08:41.661Z,0.77
2023-03-13T13:11:48.197Z,0.80
2023-03-13T13:14:55.405Z,0.80
2023-03-13T13:17:40.771Z,0.90
2023-03-13T13:20:41.397Z,0.83
2023-03-13T13:23:46.815Z,1.00
2023-03-13T13:26:48.858Z,0.87
2023-03-13T13:29:56.858Z,1.00
2023-03-13T13:32:46.105Z,0.60
2023-03-13T13:35:32.236Z,0.87
2023-03-13T13:38:36.958Z,1.13
2023-03-13T13:41:37.751Z,1.07
2023-03-13T13:44:30.471Z,1.17
2023-03-13T13:47:01.767Z,0.80
2023-03-13T13:49:57.635Z,0.70
2023-03-13T13:52:37.458Z,0.80
2023-03-13T13:55:44.749Z,0.90
2023-03-13T13:58:18.619Z,0.70
2023-03-13T14:00:51.698Z,0.80
2023-03-13T14:03:23.510Z,0.70
2023-03-13T14:05:55.165Z,0.60
2023-03-13T14:08:29.497Z,0.63
2023-03-13T14:11:14.281Z,0.90
2023-03-13T14:13:43.629Z,0.70
2023-03-13T14:16:24.542Z,0.60
2023-03-13T14:18:53.956Z,0.60
2023-03-13T14:21:23.752Z,0.83
2023-03-13T14:23:52.568Z,0.80
2023-03-13T14:26:24.557Z,0.57
2023-03-13T14:28:54.753Z,0.70
2023-03-13T14:31:30.229Z,0.70
2023-03-13T14:34:01.976Z,1.10
2023-03-13T14:36:30.791Z,0.80
2023-03-13T14:39:01.033Z,0.57
2023-03-13T14:41:33.996Z,0.50
2023-03-13T14:44:07.257Z,0.83
2023-03-13T14:46:37.632Z,0.60
2023-03-13T14:49:09.504Z,0.60
2023-03-13T14:51:40.496Z,0.87
2023-03-13T14:54:26.275Z,0.70
2023-03-13T14:57:16.565Z,0.90
2023-03-13T14:59:45.674Z,0.60
2023-03-13T15:02:18.426Z,0.53
2023-03-13T15:04:55.953Z,0.67
2023-03-13T15:07:25.963Z,0.70
2023-03-13T15:09:54.408Z,0.97
2023-03-13T15:12:25.218Z,0.40
2023-03-13T15:14:54.344Z,0.67
2023-03-13T15:17:24.689Z,0.63
2023-03-13T15:19:54.947Z,0.73
2023-03-13T15:22:28.271Z,0.63
2023-03-13T15:25:06.016Z,0.60
2023-03-13T15:27:36.704Z,0.73
2023-03-13T15:30:05.993Z,0.63
2023-03-13T15:32:36.819Z,0.80
2023-03-13T15:35:23.119Z,0.57
2023-03-13T15:37:51.361Z,0.80
2023-03-13T15:40:20.615Z,0.50
2023-03-13T15:42:50.564Z,0.60
2023-03-13T15:45:18.724Z,0.70
2023-03-13T15:47:48.746Z,0.70
2023-03-13T15:50:19.425Z,0.60
2023-03-13T15:52:47.908Z,0.73
2023-03-13T15:55:16.266Z,0.90
2023-03-13T15:57:48.465Z,0.60
2023-03-13T16:00:21.469Z,0.80
2023-03-13T16:02:50.068Z,0.80
2023-03-13T16:05:18.849Z,0.80
2023-03-13T16:07:47.331Z,1.20
2023-03-13T16:10:25.131Z,0.77
2023-03-13T16:12:53.814Z,0.83
2023-03-13T16:15:23.558Z,0.80
2023-03-13T16:17:52.051Z,0.80
2023-03-13T16:20:23.539Z,0.70
2023-03-13T16:22:53.584Z,1.00
2023-03-13T16:25:22.687Z,1.10
2023-03-13T16:27:51.025Z,1.03
2023-03-13T16:30:24.497Z,1.00
2023-03-13T16:32:54.647Z,1.17
2023-03-13T16:35:23.334Z,0.83
2023-03-13T16:37:51.974Z,0.97
2023-03-13T16:40:22.741Z,1.20
2023-03-13T16:42:51.324Z,0.97
2023-03-13T16:45:19.972Z,0.93
2023-03-13T16:47:48.221Z,0.80
2023-03-13T16:50:24.178Z,1.03
2023-03-13T16:52:53.483Z,1.40
2023-03-13T16:55:24.594Z,1.53
2023-03-13T16:57:55.024Z,1.70
2023-03-13T17:00:25.322Z,1.50
2023-03-13T17:02:54.125Z,1.80
2023-03-13T17:05:23.949Z,1.43
2023-03-13T17:07:53.031Z,1.40
2023-03-13T17:10:23.193Z,1.13
2023-03-13T17:12:51.643Z,1.20
2023-03-13T17:15:21.683Z,1.10
2023-03-13T17:17:52.446Z,1.20
2023-03-13T17:20:23.834Z,1.23
2023-03-13T17:22:52.269Z,1.80
2023-03-13T17:25:20.732Z,1.50
2023-03-13T17:27:49.274Z,1.53
2023-03-13T17:30:23.154Z,1.50
2023-03-13T17:32:54.043Z,1.50
2023-03-13T17:35:24.835Z,1.07
2023-03-13T17:37:53.109Z,1.80
2023-03-13T17:40:23.099Z,1.20
2023-03-13T17:42:51.783Z,1.83
2023-03-13T17:45:20.573Z,1.13
2023-03-13T17:47:50.282Z,1.23
2023-03-13T17:50:20.331Z,1.60
2023-03-13T17:52:50.078Z,2.00
2023-03-13T17:55:18.904Z,1.47
2023-03-13T17:57:48.277Z,1.60
2023-03-13T18:00:22.012Z,1.13
2023-03-13T18:02:50.665Z,1.23
2023-03-13T18:05:19.075Z,1.47
2023-03-13T18:07:49.526Z,1.47
2023-03-13T18:10:20.576Z,1.30
2023-03-13T18:12:48.926Z,1.47
2023-03-13T18:15:17.225Z,1.37
2023-03-13T18:17:46.057Z,1.47
2023-03-13T18:20:19.624Z,1.40
2023-03-13T18:22:49.149Z,1.40
2023-03-13T18:25:17.680Z,1.80
2023-03-13T18:27:50.318Z,1.57
2023-03-13T18:30:22.993Z,1.20
2023-03-13T18:32:51.302Z,1.40
2023-03-13T18:35:19.699Z,3.40
2023-03-13T18:37:49.869Z,2.13
2023-03-13T18:40:19.906Z,2.10
2023-03-13T18:42:48.628Z,2.87
2023-03-13T18:45:18.149Z,1.70
2023-03-13T18:47:47.980Z,2.07
2023-03-13T18:50:23.546Z,1.30
2023-03-13T18:52:55.206Z,2.40
2023-03-13T18:55:24.367Z,1.17
2023-03-13T18:57:52.960Z,1.37
2023-03-13T19:00:24.495Z,1.00
2023-03-13T19:02:53.484Z,1.93
2023-03-13T19:05:21.729Z,1.30
2023-03-13T19:07:49.972Z,1.50
2023-03-13T19:10:24.074Z,1.43
2023-03-13T19:12:52.764Z,1.00
2023-03-13T19:15:24.313Z,1.50
2023-03-13T19:17:53.855Z,1.43
2023-03-13T19:20:24.172Z,1.60
2023-03-13T19:22:54.440Z,1.67
2023-03-13T19:25:27.774Z,1.70
2023-03-13T19:27:56.476Z,1.40
2023-03-13T19:30:26.765Z,1.40
2023-03-13T19:32:55.104Z,1.33
2023-03-13T19:35:23.429Z,1.20
2023-03-13T19:37:52.319Z,1.13
2023-03-13T19:40:25.434Z,1.47
2023-03-13T19:42:53.637Z,1.13
2023-03-13T19:45:22.053Z,1.50
2023-03-13T19:47:50.813Z,1.23
2023-03-13T19:50:21.185Z,1.60
2023-03-13T19:52:49.560Z,1.30
2023-03-13T19:55:18.142Z,1.50
2023-03-13T19:57:47.732Z,2.03
2023-03-13T20:00:20.932Z,1.50
2023-03-13T20:02:49.908Z,1.30
2023-03-13T20:05:18.404Z,1.63
2023-03-13T20:07:47.538Z,0.97
2023-03-13T20:10:16.106Z,1.17
2023-03-13T20:12:44.356Z,1.00
2023-03-13T20:15:14.523Z,1.47
2023-03-13T20:17:43.062Z,1.40
2023-03-13T20:20:13.607Z,1.10
2023-03-13T20:22:42.233Z,1.20
2023-03-13T20:25:11.423Z,1.20
2023-03-13T20:27:40.099Z,2.10
2023-03-13T20:30:09.797Z,2.03
2023-03-13T20:32:49.103Z,1.80
2023-03-13T20:35:25.282Z,1.83
2023-03-13T20:37:54.579Z,1.87
2023-03-13T20:40:22.998Z,1.20
2023-03-13T20:42:51.559Z,1.40
2023-03-13T20:45:19.842Z,1.43
2023-03-13T20:47:49.432Z,1.30
2023-03-13T20:50:19.732Z,1.70
2023-03-13T20:52:48.653Z,2.40
2023-03-13T20:55:18.485Z,2.13
2023-03-13T20:57:46.814Z,1.47
2023-03-13T21:00:15.703Z,1.70
2023-03-13T21:02:44.198Z,1.40
2023-03-13T21:05:14.094Z,1.40
2023-03-13T21:07:42.415Z,1.47
2023-03-13T21:10:12.039Z,1.77
2023-03-13T21:12:40.277Z,1.77
2023-03-13T21:15:10.077Z,1.63
2023-03-13T21:17:38.948Z,1.23
2023-03-13T21:20:11.873Z,1.77
2023-03-13T21:22:42.230Z,1.83
2023-03-13T21:25:12.552Z,1.73
2023-03-13T21:27:43.603Z,1.63
2023-03-13T21:30:15.453Z,1.53
2023-03-13T21:32:44.111Z,2.93
2023-03-13T21:35:13.904Z,2.67
2023-03-13T21:37:43.866Z,2.50
2023-03-13T21:40:13.121Z,2.20
2023-03-13T21:42:41.297Z,1.97
2023-03-13T21:45:11.066Z,2.43
2023-03-13T21:47:40.294Z,1.63
2023-03-13T21:50:10.046Z,2.03
2023-03-13T21:52:40.824Z,1.80
2023-03-13T21:55:13.600Z,2.07
2023-03-13T21:57:41.984Z,1.90
2023-03-13T22:00:13.958Z,1.60
2023-03-13T22:02:42.525Z,1.63
2023-03-13T22:05:10.853Z,1.60
2023-03-13T22:07:39.051Z,2.00
2023-03-13T22:10:07.994Z,1.37
2023-03-13T22:12:38.051Z,1.60
2023-03-13T22:15:07.370Z,1.70
2023-03-13T22:17:35.839Z,1.30
2023-03-13T22:20:05.066Z,1.50
2023-03-13T22:22:33.445Z,1.43
2023-03-13T22:25:01.608Z,1.30
2023-03-13T22:27:30.812Z,1.60
2023-03-13T22:30:00.416Z,1.00
2023-03-13T22:32:30.085Z,1.30
2023-03-13T22:34:58.507Z,1.30
2023-03-13T22:37:29.248Z,1.27
2023-03-13T22:39:57.624Z,1.07
2023-03-13T22:42:26.834Z,1.70
2023-03-13T22:44:55.732Z,1.50
2023-03-13T22:47:26.650Z,1.20
2023-03-13T22:49:54.870Z,1.50
2023-03-13T22:52:28.839Z,1.30
2023-03-13T22:54:57.262Z,1.27
2023-03-13T22:57:25.870Z,1.20
2023-03-13T22:59:54.244Z,1.13
2023-03-13T23:02:23.026Z,1.50
2023-03-13T23:04:57.534Z,1.40
2023-03-13T23:07:28.210Z,1.40
2023-03-13T23:09:57.115Z,1.37
2023-03-13T23:12:26.049Z,1.20
2023-03-13T23:14:55.760Z,1.10
2023-03-13T23:17:24.182Z,1.47
2023-03-13T23:19:53.718Z,1.53
2023-03-13T23:22:22.281Z,1.40
2023-03-13T23:24:50.461Z,1.47
2023-03-13T23:27:18.933Z,1.37
2023-03-13T23:29:47.428Z,1.17
2023-03-13T23:32:15.630Z,1.80
2023-03-13T23:34:43.815Z,1.90
2023-03-13T23:37:13.377Z,0.90
2023-03-13T23:39:41.658Z,0.80
2023-03-13T23:42:09.805Z,2.50
2023-03-13T23:44:38.183Z,1.20
2023-03-13T23:47:06.446Z,1.37
2023-03-13T23:49:34.676Z,1.40
2023-03-13T23:52:02.871Z,1.30
2023-03-13T23:54:32.496Z,1.67
2023-03-13T23:57:00.646Z,1.70
2023-03-13T23:59:28.840Z,1.60
